createdAt,value
2024-01-15T00:03:04.094Z,11.20
2024-01-15T00:05:35.460Z,11.40
2024-01-15T00:08:02.482Z,9.48
2024-01-15T00:10:30.756Z,9.40
2024-01-15T00:12:57.714Z,10.00
2024-01-15T00:15:28.409Z,10.35
2024-01-15T00:18:01.325Z,10.57
2024-01-15T00:20:31.210Z,10.60
2024-01-15T00:23:06.332Z,9.73
2024-01-15T00:25:40.773Z,9.68
2024-01-15T00:28:13.560Z,9.43
2024-01-15T00:30:40.905Z,9.95
2024-01-15T00:33:13.946Z,9.45
2024-01-15T00:35:54.248Z,10.65
2024-01-15T00:38:24.743Z,9.45
2024-01-15T00:43:47.669Z,8.82
2024-01-15T00:46:14.794Z,10.35
2024-01-15T00:48:53.403Z,8.32
2024-01-15T00:51:33.043Z,8.52
2024-01-15T00:54:05.009Z,7.10
2024-01-15T00:56:35.821Z,10.80
2024-01-15T00:59:03.055Z,10.13
2024-01-15T01:01:34.276Z,10.25
2024-01-15T01:04:08.741Z,10.00
2024-01-15T01:06:38.216Z,11.52
2024-01-15T01:09:07.390Z,10.73
2024-01-15T01:11:45.120Z,10.57
2024-01-15T01:14:25.849Z,9.82
2024-01-15T01:17:01.099Z,11.02
2024-01-15T01:19:35.213Z,8.88
2024-01-15T01:22:02.345Z,9.63
2024-01-15T01:24:29.434Z,9.45
2024-01-15T01:27:00.007Z,9.55
2024-01-15T01:29:28.084Z,9.55
2024-01-15T01:32:04.620Z,7.80
2024-01-15T01:34:50.835Z,9.18
2024-01-15T01:37:18.046Z,8.77
2024-01-15T01:39:45.630Z,8.52
2024-01-15T01:42:14.523Z,9.10
2024-01-15T01:44:41.848Z,9.43
2024-01-15T01:47:09.374Z,8.73
2024-01-15T01:52:08.519Z,8.70
2024-01-15T01:54:38.115Z,9.52
2024-01-15T01:57:07.235Z,10.13
2024-01-15T01:59:37.201Z,8.63
2024-01-15T02:02:05.375Z,8.70
2024-01-15T02:04:33.488Z,7.82
2024-01-15T02:07:01.929Z,8.07
2024-01-15T02:09:29.199Z,10.75
2024-01-15T02:11:56.349Z,9.35
2024-01-15T02:14:24.076Z,8.52
2024-01-15T02:16:51.450Z,6.78
2024-01-15T02:19:19.043Z,7.75
2024-01-15T02:21:46.555Z,6.75
2024-01-15T02:26:41.103Z,8.88
2024-01-15T02:29:12.675Z,8.48
2024-01-15T02:31:40.656Z,7.45
2024-01-15T02:34:07.952Z,8.23
2024-01-15T02:36:35.117Z,8.68
2024-01-15T02:39:02.291Z,8.30
2024-01-15T02:41:29.297Z,8.73
2024-01-15T02:43:56.281Z,8.25
2024-01-15T02:46:23.277Z,8.40
2024-01-15T02:48:51.003Z,9.18
2024-01-15T02:51:18.070Z,9.07
2024-01-15T02:54:07.299Z,9.40
2024-01-15T02:56:40.469Z,7.68
2024-01-15T02:59:20.289Z,7.22
2024-01-15T03:01:50.489Z,9.10
2024-01-15T03:04:23.937Z,10.45
2024-01-15T03:06:50.938Z,10.32
2024-01-15T03:09:18.213Z,9.73
2024-01-15T03:11:51.608Z,10.50
2024-01-15T03:14:30.942Z,9.48
2024-01-15T03:17:01.487Z,9.15
2024-01-15T03:19:32.432Z,9.68
2024-01-15T03:22:02.178Z,10.93
2024-01-15T03:24:36.611Z,10.88
2024-01-15T03:27:13.196Z,9.48
2024-01-15T03:30:09.248Z,9.70
2024-01-15T03:32:55.972Z,8.73
2024-01-15T03:38:02.179Z,9.27
2024-01-15T03:40:33.755Z,10.52
2024-01-15T03:43:08.007Z,9.05
2024-01-15T03:45:36.885Z,9.38
2024-01-15T03:48:04.060Z,10.43
2024-01-15T03:50:31.677Z,6.55
2024-01-15T03:55:29.987Z,8.38
2024-01-15T03:58:08.554Z,8.45
2024-01-15T04:00:46.693Z,8.38
2024-01-15T04:03:18.792Z,9.63
2024-01-15T04:06:00.061Z,9.32
2024-01-15T04:08:34.089Z,8.93
2024-01-15T04:11:07.571Z,9.07
2024-01-15T04:13:49.672Z,9.35
2024-01-15T04:16:19.756Z,10.10
2024-01-15T04:18:59.319Z,9.45
2024-01-15T04:22:09.872Z,9.38
2024-01-15T04:24:37.740Z,8.57
2024-01-15T04:27:15.477Z,10.10
2024-01-15T04:32:36.486Z,8.32
2024-01-15T04:35:09.578Z,8.20
2024-01-15T04:37:39.345Z,9.57
2024-01-15T04:40:17.202Z,9.25
2024-01-15T04:42:54.875Z,8.55
2024-01-15T04:45:33.865Z,9.27
2024-01-15T04:48:03.214Z,8.05
2024-01-15T04:50:35.342Z,8.95
2024-01-15T04:53:09.137Z,8.20
2024-01-15T04:55:42.521Z,8.43
2024-01-15T04:58:16.812Z,8.57
2024-01-15T05:00:47.372Z,9.00
2024-01-15T05:03:14.559Z,8.45
2024-01-15T05:05:41.507Z,8.63
2024-01-15T05:08:08.486Z,8.65
2024-01-15T05:10:35.469Z,8.77
2024-01-15T05:13:02.392Z,8.48
2024-01-15T05:15:29.654Z,8.98
2024-01-15T05:17:56.598Z,8.80
2024-01-15T05:20:23.719Z,7.65
2024-01-15T05:23:04.887Z,7.68
2024-01-15T05:25:35.351Z,8.60
2024-01-15T05:28:03.508Z,9.32
2024-01-15T05:30:35.579Z,8.13
2024-01-15T05:33:12.191Z,7.95
2024-01-15T05:35:48.024Z,7.93
2024-01-15T05:38:25.740Z,8.50
2024-01-15T05:40:55.734Z,7.63
2024-01-15T05:43:41.361Z,5.22
2024-01-15T05:46:19.578Z,8.23
2024-01-15T05:51:33.978Z,8.73
2024-01-15T05:54:12.216Z,8.68
2024-01-15T05:56:45.731Z,8.43
2024-01-15T06:02:04.413Z,7.65
2024-01-15T06:04:39.166Z,7.45
2024-01-15T06:07:36.905Z,8.13
2024-01-15T06:10:05.632Z,7.75
2024-01-15T06:12:39.760Z,7.18
2024-01-15T06:15:37.594Z,8.70
2024-01-15T06:18:13.708Z,8.27
2024-01-15T06:20:53.828Z,7.32
2024-01-15T06:23:49.047Z,7.22
2024-01-15T06:26:29.211Z,7.88
2024-01-15T06:29:10.028Z,7.82
2024-01-15T06:31:53.598Z,8.95
2024-01-15T06:34:44.173Z,7.18
2024-01-15T06:37:17.007Z,8.30
2024-01-15T06:39:53.822Z,8.13
2024-01-15T06:42:29.371Z,7.45
2024-01-15T06:45:02.968Z,8.30
2024-01-15T06:47:37.169Z,7.75
2024-01-15T06:50:10.089Z,7.68
2024-01-15T06:52:43.898Z,8.43
2024-01-15T06:55:14.266Z,8.77
2024-01-15T06:57:48.138Z,9.10
2024-01-15T07:00:27.868Z,6.35
2024-01-15T07:03:04.027Z,8.85
2024-01-15T07:05:37.375Z,8.23
2024-01-15T07:08:12.924Z,8.30
2024-01-15T07:10:55.576Z,8.55
2024-01-15T07:16:11.025Z,8.43
2024-01-15T07:18:38.167Z,8.68
2024-01-15T07:21:08.664Z,7.97
2024-01-15T07:23:59.980Z,7.38
2024-01-15T07:26:37.336Z,7.25
2024-01-15T07:29:37.046Z,8.05
2024-01-15T07:32:04.595Z,8.32
2024-01-15T07:37:31.622Z,7.13
2024-01-15T07:40:13.695Z,8.05
2024-01-15T07:43:00.453Z,8.45
2024-01-15T07:45:46.321Z,7.53
2024-01-15T07:48:40.717Z,8.52
2024-01-15T07:51:20.880Z,9.05
2024-01-15T07:53:54.968Z,8.80
2024-01-15T07:56:37.734Z,9.13
2024-01-15T07:59:22.106Z,8.95
2024-01-15T08:02:04.104Z,8.55
2024-01-15T08:04:37.110Z,7.80
2024-01-15T08:07:17.050Z,8.95
2024-01-15T08:09:56.328Z,9.43
2024-01-15T08:16:02.331Z,8.82
2024-01-15T08:18:39.022Z,8.77
2024-01-15T08:21:37.702Z,8.23
2024-01-15T08:24:15.504Z,8.55
2024-01-15T08:26:56.128Z,8.45
2024-01-15T08:32:58.449Z,8.32
2024-01-15T08:35:37.811Z,8.85
2024-01-15T08:38:30.789Z,8.32
2024-01-15T08:41:16.289Z,7.85
2024-01-15T08:43:59.193Z,7.88
2024-01-15T08:46:52.957Z,7.38
2024-01-15T08:50:15.594Z,7.68
2024-01-15T08:52:47.188Z,8.30
2024-01-15T08:55:35.934Z,8.23
2024-01-15T08:58:05.156Z,8.15
2024-01-15T09:00:58.662Z,6.93
2024-01-15T09:03:42.408Z,8.80
2024-01-15T09:06:24.473Z,8.70
2024-01-15T09:09:00.416Z,7.97
2024-01-15T09:11:50.354Z,7.85
2024-01-15T09:14:38.180Z,7.93
2024-01-15T09:20:15.688Z,7.65
2024-01-15T09:22:58.058Z,8.18
2024-01-15T09:25:39.741Z,7.38
2024-01-15T09:28:11.984Z,7.70
2024-01-15T09:30:51.800Z,7.53
2024-01-15T09:34:13.220Z,7.57
2024-01-15T09:36:55.478Z,7.03
2024-01-15T09:39:31.189Z,8.10
2024-01-15T09:42:15.279Z,8.15
2024-01-15T09:45:09.106Z,7.72
2024-01-15T09:47:45.291Z,7.95
2024-01-15T09:50:14.408Z,7.15
2024-01-15T09:52:54.959Z,7.53
2024-01-15T09:55:29.300Z,7.25
2024-01-15T09:58:06.131Z,8.32
2024-01-15T10:00:38.323Z,7.88
2024-01-15T10:03:09.388Z,8.48
2024-01-15T10:05:38.896Z,7.03
2024-01-15T10:08:27.880Z,6.90
2024-01-15T10:11:17.927Z,7.72
2024-01-15T10:14:00.659Z,6.95
2024-01-15T10:16:57.676Z,7.10
2024-01-15T10:19:31.245Z,7.15
2024-01-15T10:22:04.505Z,7.45
2024-01-15T10:27:18.606Z,7.70
2024-01-15T10:29:50.440Z,7.30
2024-01-15T10:32:30.860Z,7.22
2024-01-15T10:35:03.544Z,7.25
2024-01-15T10:37:40.769Z,7.40
2024-01-15T10:40:13.971Z,7.57
2024-01-15T10:43:26.400Z,7.72
2024-01-15T10:48:57.076Z,7.10
2024-01-15T10:54:49.938Z,6.13
2024-01-15T11:04:01.960Z,6.40
2024-01-15T11:06:54.931Z,6.63
2024-01-15T11:09:25.608Z,6.82
2024-01-15T11:15:41.225Z,7.15
2024-01-15T11:20:41.071Z,4.95
2024-01-15T11:23:09.236Z,7.18
2024-01-15T11:25:39.741Z,7.05
2024-01-15T11:31:02.747Z,7.05
2024-01-15T11:34:00.688Z,6.82
2024-01-15T11:36:52.419Z,7.03
2024-01-15T11:39:28.443Z,6.60
2024-01-15T11:42:12.064Z,7.00
2024-01-15T11:44:39.904Z,6.15
2024-01-15T11:47:15.716Z,7.00
2024-01-15T11:50:13.516Z,6.35
2024-01-15T11:52:40.544Z,5.70
2024-01-15T11:55:23.480Z,5.95
2024-01-15T11:57:55.753Z,7.40
2024-01-15T12:00:24.424Z,6.95
2024-01-15T12:02:52.274Z,6.90
2024-01-15T12:05:20.568Z,7.20
2024-01-15T12:07:51.632Z,6.55
2024-01-15T12:10:20.651Z,7.05
2024-01-15T12:13:20.432Z,6.45
2024-01-15T12:15:49.358Z,6.53
2024-01-15T12:18:19.501Z,6.78
2024-01-15T12:20:52.835Z,6.35
2024-01-15T12:23:21.165Z,7.47
2024-01-15T12:25:51.213Z,6.85
2024-01-15T12:28:18.075Z,6.68
2024-01-15T12:30:50.729Z,6.75
2024-01-15T12:33:20.049Z,7.43
2024-01-15T12:35:46.958Z,6.57
2024-01-15T12:38:13.975Z,6.63
2024-01-15T12:40:40.833Z,6.90
2024-01-15T12:43:08.880Z,5.80
2024-01-15T12:45:42.639Z,5.70
2024-01-15T12:50:37.265Z,5.97
2024-01-15T12:53:07.449Z,5.25
2024-01-15T12:55:35.696Z,5.55
2024-01-15T12:58:02.715Z,6.32
2024-01-15T13:00:30.985Z,5.07
2024-01-15T13:03:05.038Z,5.05
2024-01-15T13:05:35.255Z,5.25
2024-01-15T13:08:02.810Z,5.00
2024-01-15T13:12:58.511Z,5.00
2024-01-15T13:15:25.698Z,4.97
2024-01-15T13:17:52.621Z,4.72
2024-01-15T13:20:19.775Z,4.25
2024-01-15T13:22:47.124Z,5.30
2024-01-15T13:25:13.998Z,4.20
2024-01-15T13:27:41.915Z,5.75
2024-01-15T13:30:11.647Z,4.22
2024-01-15T13:32:38.687Z,4.53
2024-01-15T13:35:08.314Z,3.45
2024-01-15T13:37:36.009Z,3.75
2024-01-15T13:40:04.805Z,3.90
2024-01-15T13:42:31.839Z,3.95
2024-01-15T13:44:59.475Z,4.35
2024-01-15T13:47:26.378Z,3.67
2024-01-15T13:49:53.278Z,3.83
2024-01-15T13:52:20.222Z,4.00
2024-01-15T13:54:50.397Z,4.05
2024-01-15T13:57:19.555Z,3.92
2024-01-15T13:59:47.561Z,3.90
2024-01-15T14:02:18.079Z,4.20
2024-01-15T14:04:48.880Z,3.22
2024-01-15T14:07:16.995Z,4.15
2024-01-15T14:09:44.459Z,3.72
2024-01-15T14:12:11.544Z,4.07
2024-01-15T14:14:38.524Z,3.67
2024-01-15T14:17:05.521Z,4.70
2024-01-15T14:19:32.533Z,3.53
2024-01-15T14:21:59.588Z,4.05
2024-01-15T14:24:26.588Z,4.05
2024-01-15T14:26:53.563Z,4.00
2024-01-15T14:29:21.989Z,4.15
2024-01-15T14:31:48.965Z,3.97
2024-01-15T14:34:16.673Z,3.90
2024-01-15T14:36:43.715Z,4.20
2024-01-15T14:39:10.939Z,4.40
2024-01-15T14:41:37.994Z,4.10
2024-01-15T14:44:05.112Z,3.95
2024-01-15T14:46:31.934Z,4.13
2024-01-15T14:48:58.894Z,4.45
2024-01-15T14:51:26.205Z,4.57
2024-01-15T14:58:49.734Z,4.20
2024-01-15T15:01:16.872Z,4.75
2024-01-15T15:03:45.447Z,4.88
2024-01-15T15:06:13.773Z,5.00
2024-01-15T15:08:41.582Z,5.30
2024-01-15T15:11:08.708Z,4.80
2024-01-15T15:13:42.514Z,4.85
2024-01-15T15:16:14.554Z,4.80
2024-01-15T15:18:44.825Z,3.83
2024-01-15T15:21:13.036Z,5.07
2024-01-15T15:23:40.407Z,5.10
2024-01-15T15:26:07.448Z,5.10
2024-01-15T15:28:38.042Z,5.20
2024-01-15T15:31:14.570Z,5.65
2024-01-15T15:33:41.737Z,4.60
2024-01-15T15:36:08.820Z,5.50
2024-01-15T15:38:36.008Z,5.55
2024-01-15T15:41:04.323Z,5.72
2024-01-15T15:43:31.395Z,5.53
2024-01-15T15:46:01.515Z,5.30
2024-01-15T15:48:29.002Z,4.75
2024-01-15T15:53:29.329Z,4.93
2024-01-15T15:59:25.643Z,4.45
2024-01-15T16:01:53.263Z,4.68
2024-01-15T16:04:20.305Z,5.18
2024-01-15T16:06:51.451Z,5.00
2024-01-15T16:09:18.549Z,5.22
2024-01-15T16:11:53.210Z,4.65
2024-01-15T16:14:22.632Z,5.32
2024-01-15T16:23:12.833Z,4.68
2024-01-15T16:23:26.401Z,5.07
2024-01-15T16:23:41.808Z,4.25
2024-01-15T16:25:16.007Z,4.65
2024-01-15T16:27:45.691Z,4.95
2024-01-15T16:30:21.165Z,4.55
2024-01-15T16:32:59.234Z,4.80
2024-01-15T16:35:29.709Z,4.82
2024-01-15T16:37:56.787Z,4.95
2024-01-15T16:40:24.001Z,4.65
2024-01-15T16:42:50.992Z,4.93
2024-01-15T16:45:17.882Z,4.15
2024-01-15T16:47:45.200Z,5.38
2024-01-15T16:50:12.387Z,4.68
2024-01-15T16:52:41.921Z,4.72
2024-01-15T16:55:09.132Z,4.68
2024-01-15T16:57:36.024Z,4.40
2024-01-15T17:00:03.070Z,4.82
2024-01-15T17:02:30.260Z,4.22
2024-01-15T17:04:57.214Z,3.85
2024-01-15T17:07:24.187Z,5.00
2024-01-15T17:09:51.095Z,4.47
2024-01-15T17:12:48.938Z,4.55
2024-01-15T17:15:15.837Z,4.47
2024-01-15T17:17:45.878Z,4.93
2024-01-15T17:20:13.501Z,5.28
2024-01-15T17:22:40.560Z,3.83
2024-01-15T17:25:07.862Z,4.28
2024-01-15T17:27:34.864Z,3.90
2024-01-15T17:30:02.014Z,4.53
2024-01-15T17:32:29.066Z,3.97
2024-01-15T17:34:56.063Z,3.58
2024-01-15T17:37:22.959Z,3.97
2024-01-15T17:39:49.886Z,4.75
2024-01-15T17:42:17.127Z,4.18
2024-01-15T17:44:44.045Z,4.70
2024-01-15T17:47:11.470Z,4.40
2024-01-15T17:49:38.870Z,3.95
2024-01-15T17:54:33.612Z,4.40
2024-01-15T18:01:55.661Z,3.22
2024-01-15T18:04:23.861Z,4.30
2024-01-15T18:06:51.565Z,3.97
2024-01-15T18:09:45.403Z,3.90
2024-01-15T18:13:06.735Z,3.83
2024-01-15T18:50:27.920Z,4.05
2024-01-15T19:04:13.681Z,4.53
2024-01-15T19:06:42.871Z,4.13
2024-01-15T19:09:11.605Z,4.68
2024-01-15T19:11:38.765Z,4.78
2024-01-15T19:14:07.140Z,4.63
2024-01-15T19:16:34.394Z,4.18
2024-01-15T19:19:01.532Z,4.45
2024-01-15T19:28:51.208Z,3.85
2024-01-15T19:31:20.482Z,4.07
2024-01-15T19:33:47.710Z,4.28
2024-01-15T19:36:25.691Z,4.30
2024-01-15T19:38:54.184Z,4.70
2024-01-15T19:41:22.744Z,4.30
2024-01-15T19:43:49.841Z,4.72
2024-01-15T19:46:17.086Z,4.63
2024-01-15T19:48:44.194Z,4.78
2024-01-15T19:51:13.718Z,4.88
2024-01-15T19:53:42.434Z,4.70
2024-01-15T19:56:09.359Z,4.50
2024-01-15T19:58:38.333Z,3.95
2024-01-15T20:01:06.263Z,4.30
2024-01-15T20:03:33.616Z,4.75
2024-01-15T20:06:01.360Z,4.00
2024-01-15T20:08:28.777Z,4.07
2024-01-15T20:10:57.314Z,4.47
2024-01-15T20:13:24.322Z,4.47
2024-01-15T20:15:51.321Z,4.43
2024-01-15T20:18:19.110Z,4.32
2024-01-15T20:20:46.469Z,4.80
2024-01-15T20:32:20.688Z,4.28
2024-01-15T20:54:36.758Z,5.10
2024-01-15T20:57:05.295Z,4.65
2024-01-15T20:59:31.950Z,5.03
2024-01-15T21:01:58.642Z,4.10
2024-01-15T21:04:25.309Z,4.32
2024-01-15T21:06:52.577Z,4.55
2024-01-15T21:09:19.251Z,4.60
2024-01-15T21:11:45.964Z,4.05
2024-01-15T21:14:19.160Z,4.65
2024-01-15T21:16:47.739Z,4.38
2024-01-15T21:19:14.496Z,3.88
2024-01-15T21:21:41.246Z,4.35
2024-01-15T21:24:09.207Z,4.15
2024-01-15T21:26:36.141Z,3.65
2024-01-15T21:29:03.099Z,4.05
2024-01-15T21:31:29.729Z,3.67
2024-01-15T21:33:57.708Z,4.45
2024-01-15T21:36:24.384Z,4.18
2024-01-15T21:38:51.052Z,3.83
2024-01-15T21:41:17.722Z,4.03
2024-01-15T21:43:44.335Z,3.90
2024-01-15T21:46:10.968Z,3.33
2024-01-15T21:48:41.268Z,3.60
2024-01-15T21:51:09.054Z,4.28
2024-01-15T21:53:36.499Z,2.97
2024-01-15T21:56:03.265Z,3.97
2024-01-15T21:58:30.146Z,4.32
2024-01-15T22:00:56.743Z,3.17
2024-01-15T22:03:23.431Z,3.95
2024-01-15T22:05:52.377Z,4.05
2024-01-15T22:08:19.909Z,4.13
2024-01-15T22:10:46.483Z,3.03
2024-01-15T22:13:13.136Z,3.58
2024-01-15T22:15:39.819Z,3.45
2024-01-15T22:18:06.737Z,3.47
2024-01-15T22:20:33.488Z,3.60
2024-01-15T22:23:00.476Z,3.55
2024-01-15T22:25:27.803Z,3.70
2024-01-15T22:27:54.391Z,3.40
2024-01-15T22:30:21.013Z,3.53
2024-01-15T22:32:47.780Z,3.35
2024-01-15T22:35:14.594Z,3.90
2024-01-15T22:37:41.954Z,4.18
2024-01-15T22:40:13.936Z,3.25
2024-01-15T22:42:40.584Z,4.00
2024-01-15T22:45:07.649Z,2.85
2024-01-15T22:47:34.477Z,3.65
2024-01-15T22:50:01.366Z,3.47
2024-01-15T22:52:27.968Z,3.90
2024-01-15T22:54:55.554Z,3.90
2024-01-15T22:57:24.644Z,4.03
2024-01-15T22:59:51.344Z,3.35
2024-01-15T23:02:19.023Z,3.88
2024-01-15T23:04:45.897Z,3.17
2024-01-15T23:07:12.656Z,3.20
2024-01-15T23:09:39.307Z,3.15
2024-01-15T23:12:08.232Z,3.45
2024-01-15T23:14:37.657Z,3.80
2024-01-15T23:17:04.469Z,3.40
2024-01-15T23:19:31.165Z,3.22
2024-01-15T23:21:57.792Z,3.63
2024-01-15T23:24:24.448Z,3.00
2024-01-15T23:26:51.094Z,3.85
2024-01-15T23:29:18.417Z,3.38
2024-01-15T23:31:45.134Z,3.00
2024-01-15T23:34:12.326Z,3.55
2024-01-15T23:36:39.024Z,3.75
2024-01-15T23:39:08.772Z,3.75
2024-01-15T23:41:37.062Z,2.92
2024-01-15T23:44:05.321Z,3.97
2024-01-15T23:46:32.606Z,3.33
2024-01-15T23:48:59.698Z,3.28
2024-01-15T23:51:26.340Z,3.75
2024-01-15T23:53:53.005Z,3.83
2024-01-15T23:56:19.718Z,3.42
2024-01-15T23:58:46.418Z,3.60
